createdAt,value
2022-08-20T00:02:23.821Z,23.99
2022-08-20T00:04:51.086Z,24.08
2022-08-20T00:07:17.720Z,24.09
2022-08-20T00:09:44.738Z,23.99
2022-08-20T00:12:16.257Z,23.97
2022-08-20T00:14:42.816Z,23.93
2022-08-20T00:17:09.295Z,23.84
2022-08-20T00:19:35.845Z,23.97
2022-08-20T00:22:02.349Z,24.00
2022-08-20T00:24:29.576Z,23.86
2022-08-20T00:26:56.055Z,23.72
2022-08-20T00:29:22.800Z,23.69
2022-08-20T00:31:50.520Z,23.74
2022-08-20T00:34:17.744Z,23.73
2022-08-20T00:36:44.409Z,23.74
2022-08-20T00:39:10.945Z,23.69
2022-08-20T00:41:37.685Z,23.50
2022-08-20T00:44:13.962Z,23.48
2022-08-20T00:46:42.120Z,23.34
2022-08-20T00:49:12.465Z,23.35
2022-08-20T00:51:46.495Z,23.40
2022-08-20T00:54:24.891Z,23.45
2022-08-20T00:56:58.787Z,23.38
2022-08-20T00:59:30.072Z,23.42
2022-08-20T01:01:57.704Z,23.31
2022-08-20T01:04:27.781Z,23.32
2022-08-20T01:06:54.800Z,23.29
2022-08-20T01:09:50.348Z,23.32
2022-08-20T01:12:09.851Z,23.30
2022-08-20T01:14:36.591Z,23.26
2022-08-20T01:17:08.318Z,23.21
2022-08-20T01:19:43.109Z,23.19
2022-08-20T01:22:30.761Z,23.18
2022-08-20T01:25:19.728Z,23.19
2022-08-20T01:27:47.965Z,23.19
2022-08-20T01:30:22.238Z,23.08
2022-08-20T01:32:48.727Z,23.08
2022-08-20T01:35:20.976Z,23.08
2022-08-20T01:37:47.489Z,23.05
2022-08-20T01:40:23.649Z,23.12
2022-08-20T01:42:58.793Z,23.05
2022-08-20T01:45:29.210Z,23.13
2022-08-20T01:47:58.149Z,23.17
2022-08-20T01:50:29.796Z,23.17
2022-08-20T01:53:12.518Z,23.17
2022-08-20T01:55:39.430Z,23.18
2022-08-20T01:58:06.123Z,23.28
2022-08-20T02:00:34.793Z,23.28
2022-08-20T02:03:03.173Z,23.22
2022-08-20T02:05:31.047Z,23.32
2022-08-20T02:07:57.984Z,23.26
2022-08-20T02:10:24.538Z,23.11
2022-08-20T02:12:51.073Z,22.99
2022-08-20T02:15:19.575Z,23.03
2022-08-20T02:18:04.960Z,22.74
2022-08-20T02:20:35.780Z,22.35
2022-08-20T02:23:05.280Z,22.39
2022-08-20T02:25:34.098Z,22.31
2022-08-20T02:28:09.474Z,21.67
2022-08-20T02:30:41.376Z,21.83
2022-08-20T02:33:13.530Z,21.96
2022-08-20T02:35:42.760Z,22.05
2022-08-20T02:38:10.742Z,22.07
2022-08-20T02:40:37.657Z,21.93
2022-08-20T02:43:04.673Z,22.03
2022-08-20T02:45:38.356Z,22.06
2022-08-20T02:48:05.468Z,22.05
2022-08-20T02:50:32.427Z,21.98
2022-08-20T02:52:58.966Z,22.08
2022-08-20T02:55:28.296Z,22.02
2022-08-20T02:58:00.241Z,22.07
2022-08-20T03:00:30.543Z,22.07
2022-08-20T03:03:04.546Z,22.13
2022-08-20T03:05:31.076Z,21.98
2022-08-20T03:07:58.434Z,22.09
2022-08-20T03:10:27.918Z,21.95
2022-08-20T03:12:54.507Z,21.87
2022-08-20T03:15:21.382Z,21.74
2022-08-20T03:17:48.298Z,21.66
2022-08-20T03:20:15.965Z,21.76
2022-08-20T03:22:42.724Z,21.76
2022-08-20T03:25:10.704Z,21.82
2022-08-20T03:27:37.394Z,21.87
2022-08-20T03:30:06.486Z,21.91
2022-08-20T03:32:33.276Z,21.60
2022-08-20T03:34:59.835Z,21.78
2022-08-20T03:37:31.088Z,21.88
2022-08-20T03:39:58.344Z,21.91
2022-08-20T03:42:24.861Z,21.95
2022-08-20T03:44:56.335Z,21.80
2022-08-20T03:47:26.233Z,21.78
2022-08-20T03:49:52.874Z,21.73
2022-08-20T03:52:19.457Z,21.69
2022-08-20T03:54:46.033Z,21.81
2022-08-20T03:57:14.648Z,21.85
2022-08-20T03:59:42.924Z,21.85
2022-08-20T04:02:09.497Z,21.74
2022-08-20T04:04:36.023Z,21.51
2022-08-20T04:07:13.765Z,21.18
2022-08-20T04:09:40.294Z,21.24
2022-08-20T04:12:08.505Z,21.44
2022-08-20T04:14:36.307Z,21.16
2022-08-20T04:17:12.222Z,21.28
2022-08-20T04:19:40.138Z,21.24
2022-08-20T04:22:08.028Z,21.36
2022-08-20T04:24:35.617Z,21.17
2022-08-20T04:27:02.820Z,21.18
2022-08-20T04:29:32.291Z,21.17
2022-08-20T04:32:00.602Z,20.97
2022-08-20T04:34:29.717Z,21.32
2022-08-20T04:36:56.421Z,21.41
2022-08-20T04:39:23.750Z,21.49
2022-08-20T04:41:50.410Z,21.58
2022-08-20T04:44:16.966Z,21.41
2022-08-20T04:46:43.769Z,21.49
2022-08-20T04:49:10.323Z,21.50
2022-08-20T04:51:38.189Z,21.61
2022-08-20T04:54:04.935Z,21.67
2022-08-20T04:56:38.092Z,21.71
2022-08-20T04:59:05.767Z,21.72
2022-08-20T05:01:33.222Z,21.69
2022-08-20T05:04:00.172Z,21.61
2022-08-20T05:06:30.708Z,21.62
2022-08-20T05:08:59.178Z,21.66
2022-08-20T05:11:35.979Z,21.60
2022-08-20T05:14:09.377Z,21.61
2022-08-20T05:16:38.055Z,21.63
2022-08-20T05:19:06.480Z,21.71
2022-08-20T05:21:32.957Z,21.54
2022-08-20T05:23:59.481Z,21.58
2022-08-20T05:26:26.587Z,21.61
2022-08-20T05:28:57.536Z,21.59
2022-08-20T05:31:32.158Z,21.60
2022-08-20T05:34:09.600Z,21.60
2022-08-20T05:36:40.029Z,21.59
2022-08-20T05:39:07.067Z,21.56
2022-08-20T05:41:33.958Z,21.26
2022-08-20T05:44:01.418Z,21.32
2022-08-20T05:46:30.933Z,21.42
2022-08-20T05:48:59.337Z,21.59
2022-08-20T05:51:26.696Z,21.58
2022-08-20T05:53:53.278Z,21.51
2022-08-20T05:56:19.758Z,21.29
2022-08-20T05:58:53.118Z,21.43
2022-08-20T06:01:19.760Z,21.35
2022-08-20T06:04:04.809Z,21.40
2022-08-20T06:06:44.330Z,21.49
2022-08-20T06:09:14.069Z,21.40
2022-08-20T06:11:40.576Z,21.42
2022-08-20T06:14:07.111Z,21.37
2022-08-20T06:16:34.093Z,21.35
2022-08-20T06:19:03.648Z,21.23
2022-08-20T06:21:30.162Z,21.23
2022-08-20T06:23:59.202Z,21.37
2022-08-20T06:26:30.350Z,21.45
2022-08-20T06:29:06.812Z,21.44
2022-08-20T06:31:34.989Z,21.47
2022-08-20T06:34:01.791Z,21.35
2022-08-20T06:36:28.490Z,21.37
2022-08-20T06:38:56.128Z,21.50
2022-08-20T06:41:22.649Z,21.49
2022-08-20T06:44:02.469Z,21.54
2022-08-20T06:46:29.104Z,21.48
2022-08-20T06:48:55.569Z,21.57
2022-08-20T06:51:23.171Z,21.71
2022-08-20T06:53:49.689Z,21.64
2022-08-20T06:56:16.621Z,21.53
2022-08-20T06:58:43.927Z,21.76
2022-08-20T07:01:12.406Z,21.79
2022-08-20T07:03:42.169Z,21.75
2022-08-20T07:06:21.778Z,21.53
2022-08-20T07:08:48.362Z,21.64
2022-08-20T07:11:14.858Z,21.69
2022-08-20T07:13:41.991Z,21.74
2022-08-20T07:16:08.766Z,21.72
2022-08-20T07:18:35.366Z,21.60
2022-08-20T07:21:01.889Z,21.83
2022-08-20T07:23:30.955Z,22.00
2022-08-20T07:25:57.438Z,21.52
2022-08-20T07:28:28.526Z,21.35
2022-08-20T07:31:14.467Z,21.59
2022-08-20T07:33:44.476Z,21.78
2022-08-20T07:36:12.131Z,21.74
2022-08-20T07:38:38.703Z,21.76
2022-08-20T07:41:09.951Z,21.80
2022-08-20T07:43:36.548Z,22.11
2022-08-20T07:46:08.790Z,22.08
2022-08-20T07:48:40.340Z,22.11
2022-08-20T07:51:08.926Z,22.15
2022-08-20T07:53:37.877Z,22.13
2022-08-20T07:56:11.442Z,22.00
2022-08-20T07:58:50.759Z,22.09
2022-08-20T08:01:26.124Z,22.20
2022-08-20T08:03:53.174Z,22.11
2022-08-20T08:06:30.384Z,22.06
2022-08-20T08:09:10.969Z,22.11
2022-08-20T08:11:40.124Z,22.15
2022-08-20T08:14:11.597Z,22.19
2022-08-20T08:16:39.197Z,22.01
2022-08-20T08:19:09.115Z,22.40
2022-08-20T08:21:35.918Z,22.30
2022-08-20T08:24:03.138Z,22.44
2022-08-20T08:26:29.695Z,22.66
2022-08-20T08:28:57.779Z,22.39
2022-08-20T08:31:25.718Z,22.52
2022-08-20T08:33:52.249Z,22.58
2022-08-20T08:36:18.816Z,22.26
2022-08-20T08:38:46.276Z,22.59
2022-08-20T08:41:26.387Z,22.48
2022-08-20T08:43:54.658Z,22.63
2022-08-20T08:46:27.086Z,22.96
2022-08-20T08:48:57.686Z,23.14
2022-08-20T08:51:52.929Z,22.90
2022-08-20T08:54:22.433Z,22.77
2022-08-20T08:56:50.622Z,22.94
2022-08-20T08:59:18.348Z,22.88
2022-08-20T09:01:53.807Z,23.03
2022-08-20T09:04:29.150Z,22.66
2022-08-20T09:06:55.840Z,23.26
2022-08-20T09:09:26.479Z,23.10
2022-08-20T09:11:55.147Z,23.11
2022-08-20T09:14:24.980Z,23.63
2022-08-20T09:16:52.969Z,23.17
2022-08-20T09:19:20.225Z,22.94
2022-08-20T09:21:46.754Z,22.93
2022-08-20T09:24:13.207Z,22.79
2022-08-20T09:26:39.738Z,22.58
2022-08-20T09:29:06.448Z,22.88
2022-08-20T09:31:33.044Z,22.94
2022-08-20T09:33:59.685Z,23.10
2022-08-20T09:36:31.803Z,23.45
2022-08-20T09:38:59.731Z,23.39
2022-08-20T09:41:27.729Z,23.36
2022-08-20T09:43:54.536Z,23.40
2022-08-20T09:46:21.091Z,23.01
2022-08-20T09:48:54.301Z,22.78
2022-08-20T09:51:21.133Z,22.91
2022-08-20T09:53:49.018Z,23.08
2022-08-20T09:56:15.873Z,22.95
2022-08-20T09:58:52.896Z,22.93
2022-08-20T10:01:21.987Z,23.20
2022-08-20T10:03:49.617Z,23.25
2022-08-20T10:06:19.679Z,23.11
2022-08-20T10:08:47.177Z,23.53
2022-08-20T10:11:13.765Z,23.62
2022-08-20T10:13:40.395Z,23.89
2022-08-20T10:16:07.120Z,23.74
2022-08-20T10:18:34.895Z,23.78
2022-08-20T10:21:01.539Z,24.06
2022-08-20T10:23:28.172Z,24.12
2022-08-20T10:25:54.658Z,24.45
2022-08-20T10:28:21.132Z,24.34
2022-08-20T10:30:47.865Z,24.60
2022-08-20T10:33:14.415Z,24.53
2022-08-20T10:35:40.969Z,24.40
2022-08-20T10:38:07.527Z,24.52
2022-08-20T10:40:34.115Z,24.60
2022-08-20T10:43:00.752Z,24.37
2022-08-20T10:45:27.318Z,24.78
2022-08-20T10:47:53.977Z,25.01
2022-08-20T10:50:20.556Z,25.21
2022-08-20T10:52:47.526Z,25.40
2022-08-20T10:55:14.272Z,25.54
2022-08-20T10:57:42.198Z,25.35
2022-08-20T11:00:13.490Z,25.26
2022-08-20T11:02:40.430Z,25.11
2022-08-20T11:05:08.251Z,25.27
2022-08-20T11:07:55.162Z,25.62
2022-08-20T11:10:25.481Z,25.83
2022-08-20T11:12:52.130Z,26.09
2022-08-20T11:15:19.053Z,26.00
2022-08-20T11:17:47.031Z,26.08
2022-08-20T11:20:16.960Z,26.01
2022-08-20T11:22:43.513Z,26.22
2022-08-20T11:25:10.386Z,26.22
2022-08-20T11:27:44.292Z,26.58
2022-08-20T11:30:14.286Z,26.35
2022-08-20T11:32:40.975Z,26.75
2022-08-20T11:35:24.902Z,26.58
2022-08-20T11:37:56.722Z,26.34
2022-08-20T11:40:24.766Z,26.47
2022-08-20T11:43:13.727Z,25.97
2022-08-20T11:45:38.313Z,25.75
2022-08-20T11:48:05.534Z,25.46
2022-08-20T11:50:32.576Z,25.63
2022-08-20T11:53:01.021Z,26.24
2022-08-20T11:55:30.511Z,25.69
2022-08-20T11:57:59.654Z,26.56
2022-08-20T12:00:30.408Z,27.02
2022-08-20T12:03:05.123Z,27.14
2022-08-20T12:05:32.793Z,27.21
2022-08-20T12:08:03.061Z,27.42
2022-08-20T12:10:30.840Z,27.39
2022-08-20T12:12:57.862Z,27.71
2022-08-20T12:15:26.737Z,27.80
2022-08-20T12:17:54.825Z,27.70
2022-08-20T12:20:23.076Z,26.84
2022-08-20T12:22:49.806Z,26.39
2022-08-20T12:25:16.539Z,26.98
2022-08-20T12:27:43.096Z,27.09
2022-08-20T12:30:14.106Z,27.18
2022-08-20T12:32:42.340Z,27.29
2022-08-20T12:35:10.862Z,27.02
2022-08-20T12:37:37.980Z,27.52
2022-08-20T12:40:08.663Z,27.64
2022-08-20T12:42:35.626Z,26.64
2022-08-20T12:45:03.029Z,26.89
2022-08-20T12:47:35.618Z,27.11
2022-08-20T12:50:08.936Z,26.94
2022-08-20T12:52:35.926Z,27.16
2022-08-20T12:55:04.589Z,26.58
2022-08-20T12:57:37.416Z,26.56
2022-08-20T13:00:11.678Z,26.43
2022-08-20T13:02:41.023Z,26.34
2022-08-20T13:05:09.468Z,26.48
2022-08-20T13:07:37.146Z,26.28
2022-08-20T13:10:06.069Z,26.26
2022-08-20T13:12:32.651Z,26.27
2022-08-20T13:14:59.194Z,26.58
2022-08-20T13:17:31.826Z,26.20
2022-08-20T13:20:09.487Z,26.45
2022-08-20T13:22:36.526Z,26.46
2022-08-20T13:25:04.474Z,26.69
2022-08-20T13:27:30.987Z,26.50
2022-08-20T13:29:58.992Z,26.33
2022-08-20T13:32:26.367Z,25.91
2022-08-20T13:34:53.036Z,25.97
2022-08-20T13:37:25.330Z,25.39
2022-08-20T13:39:52.160Z,25.69
2022-08-20T13:42:18.838Z,25.87
2022-08-20T13:44:45.517Z,25.86
2022-08-20T13:47:16.687Z,25.90
2022-08-20T13:49:43.659Z,25.86
2022-08-20T13:52:10.838Z,25.32
2022-08-20T13:54:37.889Z,24.80
2022-08-20T13:57:11.365Z,25.27
2022-08-20T13:59:44.230Z,25.30
2022-08-20T14:02:12.341Z,24.75
2022-08-20T14:04:39.158Z,24.93
2022-08-20T14:07:11.004Z,25.13
2022-08-20T14:09:39.704Z,25.03
2022-08-20T14:12:07.651Z,25.15
2022-08-20T14:14:34.313Z,25.01
2022-08-20T14:17:13.787Z,25.05
2022-08-20T14:19:41.733Z,24.87
2022-08-20T14:22:08.256Z,25.14
2022-08-20T14:24:36.021Z,25.09
2022-08-20T14:27:05.100Z,24.93
2022-08-20T14:29:38.441Z,24.93
2022-08-20T14:32:05.663Z,24.97
2022-08-20T14:34:33.298Z,25.16
2022-08-20T14:37:25.017Z,25.14
2022-08-20T14:39:54.844Z,25.04
2022-08-20T14:42:24.350Z,24.80
2022-08-20T14:44:51.414Z,24.87
2022-08-20T14:47:19.348Z,24.51
2022-08-20T14:49:47.830Z,24.77
2022-08-20T14:52:17.079Z,24.83
2022-08-20T14:54:45.121Z,24.84
2022-08-20T14:57:15.855Z,24.93
2022-08-20T14:59:43.137Z,25.06
2022-08-20T15:02:12.690Z,25.20
2022-08-20T15:04:40.864Z,25.16
2022-08-20T15:07:23.891Z,25.25
2022-08-20T15:09:50.855Z,25.45
2022-08-20T15:12:17.472Z,24.89
2022-08-20T15:14:44.225Z,25.35
2022-08-20T15:17:34.120Z,25.71
2022-08-20T15:20:20.799Z,25.83
2022-08-20T15:22:48.981Z,25.48
2022-08-20T15:25:18.330Z,25.43
2022-08-20T15:27:45.950Z,25.18
2022-08-20T15:30:16.683Z,25.52
2022-08-20T15:32:43.611Z,25.85
2022-08-20T15:35:11.350Z,25.92
2022-08-20T15:37:43.714Z,25.56
2022-08-20T15:40:12.770Z,26.07
2022-08-20T15:42:43.185Z,26.30
2022-08-20T15:45:21.834Z,25.89
2022-08-20T15:48:15.353Z,26.11
2022-08-20T15:50:56.840Z,25.94
2022-08-20T15:53:31.192Z,26.13
2022-08-20T15:56:21.340Z,25.64
2022-08-20T15:59:10.812Z,25.07
2022-08-20T16:02:04.061Z,24.74
2022-08-20T16:04:36.569Z,25.62
2022-08-20T16:07:13.073Z,25.72
2022-08-20T16:09:48.581Z,25.23
2022-08-20T16:12:32.474Z,24.87
2022-08-20T16:15:05.207Z,25.36
2022-08-20T16:17:39.453Z,24.58
2022-08-20T16:20:09.674Z,25.18
2022-08-20T16:22:43.023Z,25.11
2022-08-20T16:25:12.673Z,25.30
2022-08-20T16:28:03.954Z,25.62
2022-08-20T16:30:37.985Z,25.04
2022-08-20T16:33:27.644Z,25.32
2022-08-20T16:36:29.464Z,24.78
2022-08-20T16:39:04.258Z,24.99
2022-08-20T16:41:34.854Z,25.30
2022-08-20T16:44:26.531Z,25.52
2022-08-20T16:47:11.705Z,24.97
2022-08-20T16:49:48.758Z,25.17
2022-08-20T16:52:15.667Z,25.04
2022-08-20T16:54:45.443Z,24.86
2022-08-20T16:57:17.219Z,25.01
2022-08-20T16:59:57.281Z,25.28
2022-08-20T17:02:26.365Z,25.33
2022-08-20T17:04:59.523Z,25.30
2022-08-20T17:07:49.452Z,25.35
2022-08-20T17:10:26.359Z,25.31
2022-08-20T17:12:59.878Z,25.10
2022-08-20T17:15:34.551Z,25.13
2022-08-20T17:18:37.935Z,25.16
2022-08-20T17:21:25.785Z,24.86
2022-08-20T17:23:56.688Z,25.10
2022-08-20T17:26:37.008Z,25.19
2022-08-20T17:29:22.276Z,24.98
2022-08-20T17:31:53.066Z,25.12
2022-08-20T17:34:28.884Z,25.10
2022-08-20T17:36:58.563Z,25.15
2022-08-20T17:39:28.943Z,25.02
2022-08-20T17:42:05.411Z,24.97
2022-08-20T17:44:35.935Z,25.03
2022-08-20T17:47:10.679Z,25.03
2022-08-20T17:50:02.781Z,24.81
2022-08-20T17:52:47.188Z,24.78
2022-08-20T17:55:13.892Z,24.24
2022-08-20T17:57:45.316Z,24.04
2022-08-20T18:00:17.930Z,24.24
2022-08-20T18:02:44.870Z,24.41
2022-08-20T18:05:19.491Z,24.48
2022-08-20T18:08:31.158Z,24.49
2022-08-20T18:11:08.042Z,24.36
2022-08-20T18:13:34.566Z,24.42
2022-08-20T18:16:03.389Z,24.42
2022-08-20T18:18:52.911Z,24.51
2022-08-20T18:21:29.728Z,24.33
2022-08-20T18:24:01.733Z,23.93
2022-08-20T18:26:35.673Z,24.06
2022-08-20T18:29:14.673Z,23.90
2022-08-20T18:31:48.725Z,23.79
2022-08-20T18:34:17.287Z,23.75
2022-08-20T18:36:54.962Z,23.70
2022-08-20T18:39:25.156Z,23.51
2022-08-20T18:42:03.415Z,23.68
2022-08-20T18:44:42.266Z,23.43
2022-08-20T18:47:19.711Z,23.39
2022-08-20T18:49:47.048Z,23.26
2022-08-20T18:52:16.887Z,23.33
2022-08-20T18:54:50.603Z,23.19
2022-08-20T18:57:30.537Z,23.14
2022-08-20T19:00:12.789Z,23.07
2022-08-20T19:02:57.856Z,22.99
2022-08-20T19:05:47.781Z,23.01
2022-08-20T19:08:21.497Z,22.97
2022-08-20T19:11:13.176Z,22.86
2022-08-20T19:13:42.781Z,22.93
2022-08-20T19:16:30.565Z,22.88
2022-08-20T19:18:57.281Z,22.71
2022-08-20T19:21:27.446Z,22.58
2022-08-20T19:23:57.136Z,22.74
2022-08-20T19:26:27.382Z,22.80
2022-08-20T19:28:58.914Z,22.78
2022-08-20T19:31:28.713Z,22.60
2022-08-20T19:34:20.413Z,22.80
2022-08-20T19:36:57.016Z,22.79
2022-08-20T19:39:25.848Z,22.83
2022-08-20T19:42:03.565Z,22.95
2022-08-20T19:44:48.365Z,22.90
2022-08-20T19:47:26.032Z,22.94
2022-08-20T19:49:57.921Z,22.96
2022-08-20T19:52:47.125Z,22.96
2022-08-20T19:55:30.773Z,22.97
2022-08-20T19:58:04.878Z,22.86
2022-08-20T20:00:43.353Z,22.98
2022-08-20T20:03:12.249Z,22.91
2022-08-20T20:06:01.071Z,22.98
2022-08-20T20:08:39.977Z,22.74
2022-08-20T20:11:07.356Z,22.70
2022-08-20T20:13:36.029Z,22.26
2022-08-20T20:16:04.809Z,22.32
2022-08-20T20:18:37.604Z,22.29
2022-08-20T20:21:23.511Z,22.28
2022-08-20T20:23:57.804Z,22.25
2022-08-20T20:26:29.538Z,22.05
2022-08-20T20:29:26.955Z,22.01
2022-08-20T20:31:53.377Z,22.02
2022-08-20T20:34:26.716Z,21.58
2022-08-20T20:37:05.709Z,21.74
2022-08-20T20:39:41.777Z,21.58
2022-08-20T20:42:13.494Z,21.56
2022-08-20T20:44:44.768Z,21.45
2022-08-20T20:47:20.843Z,21.38
2022-08-20T20:49:51.745Z,21.28
2022-08-20T20:52:25.044Z,21.23
2022-08-20T20:55:03.756Z,21.16
2022-08-20T20:57:38.712Z,21.34
2022-08-20T21:00:16.539Z,21.37
2022-08-20T21:02:44.450Z,21.22
2022-08-20T21:05:12.806Z,21.40
2022-08-20T21:07:57.430Z,21.44
2022-08-20T21:10:32.236Z,21.43
2022-08-20T21:12:59.763Z,21.45
2022-08-20T21:15:26.890Z,21.51
2022-08-20T21:17:54.097Z,21.50
2022-08-20T21:20:22.093Z,21.46
2022-08-20T21:22:48.722Z,21.39
2022-08-20T21:25:15.869Z,21.28
2022-08-20T21:27:45.730Z,21.20
2022-08-20T21:30:13.188Z,21.27
2022-08-20T21:32:39.723Z,21.28
2022-08-20T21:35:07.201Z,21.31
2022-08-20T21:37:33.869Z,21.16
2022-08-20T21:40:00.493Z,21.27
2022-08-20T21:42:29.192Z,21.03
2022-08-20T21:44:59.818Z,21.01
2022-08-20T21:47:26.816Z,20.45
2022-08-20T21:49:53.929Z,19.91
2022-08-20T21:52:20.914Z,20.10
2022-08-20T21:54:47.427Z,20.23
2022-08-20T21:57:19.147Z,20.24
2022-08-20T21:59:45.829Z,20.05
2022-08-20T22:02:13.029Z,19.73
2022-08-20T22:04:39.679Z,19.87
2022-08-20T22:07:06.158Z,19.83
2022-08-20T22:09:33.837Z,19.72
2022-08-20T22:12:01.291Z,19.57
2022-08-20T22:14:28.890Z,19.52
2022-08-20T22:16:55.624Z,19.36
2022-08-20T22:19:22.398Z,19.43
2022-08-20T22:21:49.540Z,19.17
2022-08-20T22:24:16.089Z,19.50
2022-08-20T22:26:43.327Z,19.41
2022-08-20T22:29:11.659Z,19.77
2022-08-20T22:31:41.550Z,19.63
2022-08-20T22:34:09.981Z,19.28
2022-08-20T22:36:36.894Z,19.34
2022-08-20T22:39:04.390Z,19.41
2022-08-20T22:41:30.932Z,19.22
2022-08-20T22:43:57.689Z,19.21
2022-08-20T22:46:30.993Z,19.29
2022-08-20T22:48:57.765Z,19.25
2022-08-20T22:51:30.252Z,19.30
2022-08-20T22:53:57.701Z,18.94
2022-08-20T22:56:24.405Z,18.83
2022-08-20T22:58:51.086Z,18.77
2022-08-20T23:01:19.688Z,18.79
2022-08-20T23:03:46.540Z,18.71
2022-08-20T23:06:13.618Z,18.74
2022-08-20T23:08:42.027Z,18.66
2022-08-20T23:11:09.158Z,18.74
2022-08-20T23:13:35.990Z,18.80
2022-08-20T23:16:03.037Z,18.63
2022-08-20T23:18:29.701Z,18.39
2022-08-20T23:20:59.020Z,18.61
2022-08-20T23:23:26.695Z,18.81
2022-08-20T23:25:53.754Z,18.82
2022-08-20T23:28:22.637Z,18.61
2022-08-20T23:30:49.266Z,18.71
2022-08-20T23:33:16.192Z,18.96
2022-08-20T23:35:44.313Z,19.06
2022-08-20T23:38:11.105Z,19.19
2022-08-20T23:40:38.702Z,19.23
2022-08-20T23:43:05.805Z,19.32
2022-08-20T23:45:33.437Z,19.26
2022-08-20T23:48:00.114Z,18.62
2022-08-20T23:50:29.203Z,18.89
2022-08-20T23:52:57.215Z,19.12
2022-08-20T23:55:24.844Z,19.14
2022-08-20T23:57:52.170Z,18.66
